Pointe-a-Pitre, Guadeloupe
Current Conditions -  °F | °C
As of 5:00 PM on Sunday 23 Nov 2014 (Local Time) from TFFR Reporting Station
Broken Clouds Broken Clouds  
Wind Chill: 81°   Ceiling: 2400
Heat Index: 84°   Visibility: 6mi
Dew Point: 70°   Wind: 8mph
Humidity: 70%   Direction: 90°E
Pressure: 29.94"   Gusts: NA
Location:  16.24°N, 61.53°W
Report Text: TFFR 232100Z 09007KT 9999 BKN024 BKN280 27/21 Q1014
Loading
Personal Weather Stations






























Interactive Weather Map New forecast layout! Learn more

10-Day Weather Forecast

Advertisements
Track Severe Weather on mobile